createdAt,value
2017-08-23T00:00:16.799Z,16.66
2017-08-23T00:01:16.794Z,16.66
2017-08-23T00:02:16.786Z,16.54
2017-08-23T00:03:16.782Z,16.55
2017-08-23T00:04:16.770Z,16.47
2017-08-23T00:05:16.762Z,16.54
2017-08-23T00:06:16.759Z,16.52
2017-08-23T00:07:16.751Z,16.54
2017-08-23T00:08:16.742Z,16.51
2017-08-23T00:09:16.740Z,16.45
2017-08-23T00:10:16.731Z,16.52
2017-08-23T00:11:16.727Z,16.54
2017-08-23T00:12:16.725Z,16.50
2017-08-23T00:13:16.717Z,16.50
2017-08-23T00:14:16.712Z,16.52
2017-08-23T00:15:16.703Z,16.57
2017-08-23T00:16:16.698Z,16.70
2017-08-23T00:17:16.690Z,16.65
2017-08-23T00:18:16.686Z,16.69
2017-08-23T00:19:16.677Z,16.72
2017-08-23T00:20:16.665Z,16.81
2017-08-23T00:21:16.662Z,16.80
2017-08-23T00:22:16.653Z,16.99
2017-08-23T00:23:16.650Z,17.17
2017-08-23T00:24:16.643Z,17.21
2017-08-23T00:25:16.634Z,17.27
2017-08-23T00:26:16.632Z,17.39
2017-08-23T00:27:16.621Z,17.39
2017-08-23T00:28:16.618Z,17.40
2017-08-23T00:29:16.614Z,17.38
2017-08-23T00:30:16.604Z,17.40
2017-08-23T00:31:16.600Z,17.45
2017-08-23T00:32:16.591Z,17.42
2017-08-23T00:33:16.587Z,17.42
2017-08-23T00:34:16.578Z,17.36
2017-08-23T00:35:16.577Z,17.42
2017-08-23T00:36:16.564Z,17.33
2017-08-23T00:37:16.555Z,17.33
2017-08-23T00:38:16.551Z,17.32
2017-08-23T00:39:16.541Z,17.35
2017-08-23T00:40:16.537Z,17.25
2017-08-23T00:41:16.532Z,17.27
2017-08-23T00:42:16.522Z,17.22
2017-08-23T00:43:16.533Z,17.30
2017-08-23T00:44:16.515Z,17.25
2017-08-23T00:45:16.506Z,17.25
2017-08-23T00:46:16.502Z,17.28
2017-08-23T00:47:16.493Z,17.20
2017-08-23T00:48:16.488Z,17.24
2017-08-23T00:49:16.479Z,17.15
2017-08-23T00:50:16.476Z,17.14
2017-08-23T00:51:16.468Z,17.10
2017-08-23T00:52:16.456Z,17.03
2017-08-23T00:53:16.450Z,16.95
2017-08-23T00:54:16.442Z,16.87
2017-08-23T00:55:16.439Z,16.82
2017-08-23T00:56:16.435Z,16.84
2017-08-23T00:57:16.428Z,16.78
2017-08-23T00:58:16.423Z,16.75
2017-08-23T00:59:16.413Z,16.77
2017-08-23T01:00:16.403Z,16.67
2017-08-23T01:01:16.398Z,16.52
2017-08-23T01:02:16.389Z,16.51
2017-08-23T01:03:16.386Z,16.47
2017-08-23T01:04:16.375Z,16.37
2017-08-23T01:05:16.372Z,16.34
2017-08-23T01:06:16.378Z,16.25
2017-08-23T01:07:16.358Z,16.13
2017-08-23T01:08:16.354Z,16.11
2017-08-23T01:09:16.348Z,16.04
2017-08-23T01:10:16.342Z,15.98
2017-08-23T01:11:16.333Z,16.08
2017-08-23T01:12:16.325Z,16.01
2017-08-23T01:13:16.322Z,15.96
2017-08-23T01:14:16.312Z,15.96
2017-08-23T01:15:16.308Z,15.89
2017-08-23T01:16:16.300Z,15.85
2017-08-23T01:17:16.287Z,15.80
2017-08-23T01:18:16.299Z,15.70
2017-08-23T01:19:16.274Z,15.78
2017-08-23T01:20:16.268Z,15.73
2017-08-23T01:21:16.259Z,15.71
2017-08-23T01:22:16.259Z,15.68
2017-08-23T01:23:16.247Z,15.70
2017-08-23T01:24:16.243Z,15.55
2017-08-23T01:25:16.238Z,15.55
2017-08-23T01:26:16.232Z,15.53
2017-08-23T01:27:16.225Z,15.48
2017-08-23T01:28:16.216Z,15.60
2017-08-23T01:29:16.207Z,15.51
2017-08-23T01:30:16.204Z,15.52
2017-08-23T01:31:16.195Z,15.51
2017-08-23T01:32:16.181Z,15.48
2017-08-23T01:33:16.177Z,15.49
2017-08-23T01:34:16.170Z,15.33
2017-08-23T01:35:16.165Z,15.41
2017-08-23T01:36:16.154Z,15.34
2017-08-23T01:37:16.149Z,15.33
2017-08-23T01:38:16.141Z,15.33
2017-08-23T01:39:16.136Z,15.31
2017-08-23T01:40:16.132Z,15.31
2017-08-23T01:41:16.123Z,15.15
2017-08-23T01:42:16.118Z,15.23
2017-08-23T01:43:16.110Z,15.15
2017-08-23T01:44:16.109Z,15.15
2017-08-23T01:45:16.098Z,15.12
2017-08-23T01:46:16.087Z,15.15
2017-08-23T01:47:16.083Z,15.03
2017-08-23T01:48:16.090Z,15.00
2017-08-23T01:49:16.062Z,15.00
2017-08-23T01:50:16.057Z,14.95
2017-08-23T01:51:16.048Z,14.86
2017-08-23T01:52:16.041Z,14.87
2017-08-23T01:53:16.033Z,14.86
2017-08-23T01:54:16.028Z,14.93
2017-08-23T01:55:16.019Z,14.85
2017-08-23T01:56:16.015Z,14.98
2017-08-23T01:57:16.009Z,14.91
2017-08-23T01:58:16.002Z,14.87
2017-08-23T01:59:15.996Z,14.90
2017-08-23T02:00:15.983Z,14.95
2017-08-23T02:01:15.974Z,14.94
2017-08-23T02:02:15.976Z,14.93
2017-08-23T02:03:15.961Z,14.91
2017-08-23T02:04:15.955Z,14.90
2017-08-23T02:05:15.950Z,14.97
2017-08-23T02:06:15.942Z,14.98
2017-08-23T02:07:15.937Z,14.97
2017-08-23T02:08:15.926Z,14.98
2017-08-23T02:09:15.921Z,14.95
2017-08-23T02:10:15.912Z,15.05
2017-08-23T02:11:15.908Z,15.04
2017-08-23T02:12:15.895Z,14.98
2017-08-23T02:13:15.885Z,15.01
2017-08-23T02:14:15.880Z,14.93
2017-08-23T02:15:15.873Z,14.95
2017-08-23T02:16:15.863Z,14.95
2017-08-23T02:17:15.857Z,14.98
2017-08-23T02:18:15.847Z,14.98
2017-08-23T02:19:15.842Z,15.00
2017-08-23T02:20:15.838Z,15.00
2017-08-23T02:21:15.830Z,15.00
2017-08-23T02:22:15.824Z,15.03
2017-08-23T02:23:15.815Z,15.00
2017-08-23T02:24:15.809Z,14.97
2017-08-23T02:25:15.800Z,14.95
2017-08-23T02:26:15.794Z,14.94
2017-08-23T02:27:15.784Z,14.91
2017-08-23T02:28:15.773Z,14.97
2017-08-23T02:29:15.766Z,14.98
2017-08-23T02:30:15.758Z,15.01
2017-08-23T02:31:15.750Z,15.01
2017-08-23T02:32:15.745Z,15.04
2017-08-23T02:33:15.734Z,15.00
2017-08-23T02:34:15.730Z,14.98
2017-08-23T02:35:15.740Z,15.05
2017-08-23T02:36:15.715Z,15.12
2017-08-23T02:37:15.711Z,15.09
2017-08-23T02:38:15.701Z,15.09
2017-08-23T02:39:15.696Z,14.98
2017-08-23T02:40:15.686Z,14.97
2017-08-23T02:41:15.685Z,14.95
2017-08-23T02:42:15.671Z,14.90
2017-08-23T02:43:15.665Z,14.87
2017-08-23T02:44:15.654Z,14.86
2017-08-23T02:45:15.644Z,14.78
2017-08-23T02:46:15.638Z,14.69
2017-08-23T02:47:15.629Z,14.74
2017-08-23T02:48:15.620Z,14.67
2017-08-23T02:49:15.622Z,14.61
2017-08-23T02:50:15.606Z,14.60
2017-08-23T02:51:15.600Z,14.64
2017-08-23T02:52:15.596Z,14.60
2017-08-23T02:53:15.587Z,14.60
2017-08-23T02:54:15.598Z,14.59
2017-08-23T02:55:15.572Z,14.57
2017-08-23T02:56:15.564Z,14.60
2017-08-23T02:57:15.555Z,14.49
2017-08-23T02:58:15.551Z,14.49
2017-08-23T02:59:15.541Z,14.59
2017-08-23T03:00:15.528Z,14.61
2017-08-23T03:01:15.524Z,14.54
2017-08-23T03:02:15.513Z,14.61
2017-08-23T03:03:15.507Z,14.63
2017-08-23T03:04:15.502Z,14.59
2017-08-23T03:05:15.493Z,14.53
2017-08-23T03:06:15.488Z,14.56
2017-08-23T03:07:15.479Z,14.63
2017-08-23T03:08:15.466Z,14.61
2017-08-23T03:09:15.460Z,14.56
2017-08-23T03:10:15.452Z,14.54
2017-08-23T03:11:15.444Z,14.56
2017-08-23T03:12:15.442Z,14.63
2017-08-23T03:13:15.428Z,14.63
2017-08-23T03:14:15.419Z,14.60
2017-08-23T03:15:15.415Z,14.53
2017-08-23T03:16:15.409Z,14.52
2017-08-23T03:17:15.399Z,14.53
2017-08-23T03:18:15.394Z,14.56
2017-08-23T03:19:15.385Z,14.56
2017-08-23T03:20:15.375Z,14.60
2017-08-23T03:21:15.371Z,14.52
2017-08-23T03:22:15.361Z,14.45
2017-08-23T03:23:15.354Z,14.48
2017-08-23T03:24:15.342Z,14.54
2017-08-23T03:25:15.332Z,14.45
2017-08-23T03:26:15.331Z,14.38
2017-08-23T03:27:15.318Z,14.52
2017-08-23T03:28:15.311Z,14.42
2017-08-23T03:29:15.301Z,14.49
2017-08-23T03:30:15.296Z,14.38
2017-08-23T03:31:15.289Z,14.36
2017-08-23T03:32:15.281Z,14.46
2017-08-23T03:33:15.276Z,14.44
2017-08-23T03:34:15.266Z,14.46
2017-08-23T03:35:15.261Z,14.52
2017-08-23T03:36:15.252Z,14.44
2017-08-23T03:37:15.242Z,14.53
2017-08-23T03:38:15.237Z,14.49
2017-08-23T03:39:15.227Z,14.45
2017-08-23T03:40:15.213Z,14.46
2017-08-23T03:41:15.209Z,14.45
2017-08-23T03:42:15.198Z,14.39
2017-08-23T03:43:15.193Z,14.44
2017-08-23T03:44:15.181Z,14.42
2017-08-23T03:45:15.177Z,14.38
2017-08-23T03:46:15.166Z,14.39
2017-08-23T03:47:15.159Z,14.35
2017-08-23T03:48:15.156Z,14.36
2017-08-23T03:49:15.148Z,14.38
2017-08-23T03:50:15.191Z,14.39
2017-08-23T03:51:15.131Z,14.29
2017-08-23T03:52:15.121Z,14.27
2017-08-23T03:53:15.116Z,14.24
2017-08-23T03:54:15.107Z,14.26
2017-08-23T03:55:15.101Z,14.19
2017-08-23T03:56:15.086Z,14.19
2017-08-23T03:57:15.078Z,14.26
2017-08-23T03:58:15.072Z,14.16
2017-08-23T03:59:15.062Z,14.23
2017-08-23T04:00:15.056Z,14.20
2017-08-23T04:01:15.046Z,14.16
2017-08-23T04:02:15.039Z,14.12
2017-08-23T04:03:15.030Z,14.09
2017-08-23T04:04:15.024Z,13.96
2017-08-23T04:05:15.018Z,13.99
2017-08-23T04:06:15.009Z,14.04
2017-08-23T04:07:15.004Z,13.96
2017-08-23T04:08:14.990Z,13.98
2017-08-23T04:09:14.981Z,13.83
2017-08-23T04:10:14.974Z,13.80
2017-08-23T04:11:14.965Z,13.86
2017-08-23T04:12:14.959Z,13.87
2017-08-23T04:13:14.953Z,13.80
2017-08-23T04:14:14.944Z,13.87
2017-08-23T04:15:14.938Z,13.81
2017-08-23T04:16:14.926Z,13.90
2017-08-23T04:17:14.921Z,13.84
2017-08-23T04:18:14.911Z,13.86
2017-08-23T04:19:14.908Z,13.83
2017-08-23T04:20:14.891Z,13.83
2017-08-23T04:21:14.882Z,13.80
2017-08-23T04:22:14.877Z,13.75
2017-08-23T04:23:14.866Z,13.69
2017-08-23T04:24:14.855Z,13.73
2017-08-23T04:25:14.851Z,13.81
2017-08-23T04:26:14.841Z,13.75
2017-08-23T04:27:14.851Z,13.88
2017-08-23T04:28:14.829Z,13.76
2017-08-23T04:29:14.820Z,13.81
2017-08-23T04:30:14.814Z,13.79
2017-08-23T04:31:14.803Z,13.79
2017-08-23T04:32:14.796Z,13.81
2017-08-23T04:33:14.786Z,13.84
2017-08-23T04:34:14.779Z,13.90
2017-08-23T04:35:14.770Z,13.84
2017-08-23T04:36:14.757Z,13.93
2017-08-23T04:37:14.751Z,13.93
2017-08-23T04:38:14.740Z,13.86
2017-08-23T04:39:14.734Z,13.93
2017-08-23T04:40:14.724Z,13.93
2017-08-23T04:41:14.716Z,13.98
2017-08-23T04:42:14.710Z,13.94
2017-08-23T04:43:14.700Z,14.01
2017-08-23T04:44:14.695Z,14.01
2017-08-23T04:45:14.689Z,13.93
2017-08-23T04:46:14.679Z,13.99
2017-08-23T04:47:14.673Z,13.99
2017-08-23T04:48:14.661Z,14.06
2017-08-23T04:49:14.656Z,14.12
2017-08-23T04:50:14.645Z,14.06
2017-08-23T04:51:14.639Z,14.13
2017-08-23T04:52:14.626Z,14.13
2017-08-23T04:53:14.615Z,14.19
2017-08-23T04:54:14.609Z,14.13
2017-08-23T04:55:14.599Z,14.16
2017-08-23T04:56:14.590Z,14.17
2017-08-23T04:57:14.585Z,14.13
2017-08-23T04:58:14.574Z,14.20
2017-08-23T04:59:14.569Z,14.27
2017-08-23T05:00:14.566Z,14.16
2017-08-23T05:01:14.854Z,14.20
2017-08-23T05:02:14.548Z,14.16
2017-08-23T05:03:14.540Z,14.23
2017-08-23T05:04:14.530Z,14.20
2017-08-23T05:05:14.521Z,14.26
2017-08-23T05:06:14.516Z,14.30
2017-08-23T05:07:14.504Z,14.48
2017-08-23T05:08:14.493Z,14.54
2017-08-23T05:09:14.487Z,14.61
2017-08-23T05:10:14.476Z,14.78
2017-08-23T05:11:14.472Z,14.97
2017-08-23T05:12:14.459Z,15.30
2017-08-23T05:13:14.455Z,15.37
2017-08-23T05:14:14.445Z,15.60
2017-08-23T05:15:14.439Z,16.26
2017-08-23T05:16:14.435Z,16.70
2017-08-23T05:17:14.426Z,17.07
2017-08-23T05:18:14.420Z,17.35
2017-08-23T05:19:14.412Z,17.74
2017-08-23T05:20:14.404Z,18.23
2017-08-23T05:21:14.395Z,18.68
2017-08-23T05:22:14.394Z,18.97
2017-08-23T05:23:14.382Z,19.39
2017-08-23T05:24:14.375Z,19.64
2017-08-23T05:25:14.366Z,19.58
2017-08-23T05:26:14.356Z,19.09
2017-08-23T05:27:14.354Z,18.72
2017-08-23T05:28:14.347Z,18.42
2017-08-23T05:29:14.338Z,18.26
2017-08-23T05:30:14.334Z,18.20
2017-08-23T05:31:14.329Z,18.19
2017-08-23T05:32:14.325Z,18.34
2017-08-23T05:33:14.321Z,18.38
2017-08-23T05:34:14.313Z,18.64
2017-08-23T05:35:14.311Z,18.68
2017-08-23T05:36:14.300Z,18.89
2017-08-23T05:37:14.297Z,19.13
2017-08-23T05:38:14.290Z,19.27
2017-08-23T05:39:14.287Z,19.23
2017-08-23T05:40:14.277Z,19.40
2017-08-23T05:41:14.269Z,20.01
2017-08-23T05:42:14.267Z,20.78
2017-08-23T05:43:14.259Z,21.52
2017-08-23T05:44:14.253Z,22.01
2017-08-23T05:45:14.253Z,22.49
2017-08-23T05:46:14.243Z,22.97
2017-08-23T05:47:14.241Z,23.29
2017-08-23T05:48:14.240Z,23.54
2017-08-23T05:49:14.234Z,24.05
2017-08-23T05:50:14.233Z,24.23
2017-08-23T05:51:14.227Z,24.60
2017-08-23T05:52:14.223Z,25.01
2017-08-23T05:53:14.220Z,25.26
2017-08-23T05:54:14.219Z,25.42
2017-08-23T05:55:14.214Z,25.74
2017-08-23T05:56:14.207Z,25.94
2017-08-23T05:57:14.207Z,26.03
2017-08-23T05:58:14.203Z,26.44
2017-08-23T05:59:14.203Z,26.78
2017-08-23T06:00:14.200Z,27.09
2017-08-23T06:01:14.196Z,27.39
2017-08-23T06:02:14.198Z,27.45
2017-08-23T06:03:14.195Z,27.40
2017-08-23T06:04:14.198Z,27.59
2017-08-23T06:05:14.200Z,27.71
2017-08-23T06:06:14.198Z,27.83
2017-08-23T06:07:14.200Z,28.08
2017-08-23T06:08:14.197Z,28.30
2017-08-23T06:09:14.200Z,28.62
2017-08-23T06:10:14.198Z,28.74
2017-08-23T06:11:14.201Z,28.73
2017-08-23T06:12:14.198Z,28.51
2017-08-23T06:13:14.195Z,28.89
2017-08-23T06:14:14.198Z,29.27
2017-08-23T06:15:14.200Z,29.63
2017-08-23T06:16:14.203Z,29.78
2017-08-23T06:17:14.207Z,29.86
2017-08-23T06:18:14.208Z,30.11
2017-08-23T06:19:14.212Z,30.34
2017-08-23T06:20:14.208Z,30.48
2017-08-23T06:21:14.210Z,30.37
2017-08-23T06:22:14.214Z,30.18
2017-08-23T06:23:14.217Z,29.88
2017-08-23T06:24:14.218Z,29.37
2017-08-23T06:25:14.220Z,29.20
2017-08-23T06:26:14.224Z,28.45
2017-08-23T06:27:14.227Z,29.42
2017-08-23T06:28:14.235Z,28.83
2017-08-23T06:29:14.239Z,28.57
2017-08-23T06:30:14.241Z,27.20
2017-08-23T06:31:14.246Z,27.91
2017-08-23T06:32:14.249Z,28.30
2017-08-23T06:33:14.251Z,28.69
2017-08-23T06:34:14.256Z,28.69
2017-08-23T06:35:14.258Z,28.11
2017-08-23T06:36:14.257Z,27.84
2017-08-23T06:37:14.263Z,28.03
2017-08-23T06:38:14.266Z,27.59
2017-08-23T06:39:14.272Z,27.53
2017-08-23T06:40:14.272Z,27.45
2017-08-23T06:41:14.280Z,26.90
2017-08-23T06:42:14.282Z,26.91
2017-08-23T06:43:14.287Z,27.34
2017-08-23T06:44:14.295Z,27.58
2017-08-23T06:45:14.298Z,27.78
2017-08-23T06:46:14.305Z,27.74
2017-08-23T06:47:14.307Z,27.46
2017-08-23T06:48:14.311Z,27.81
2017-08-23T06:49:14.317Z,27.87
2017-08-23T06:50:14.320Z,28.73
2017-08-23T06:51:14.326Z,28.70
2017-08-23T06:52:14.330Z,28.91
2017-08-23T06:53:14.329Z,29.54
2017-08-23T06:54:14.335Z,29.44
2017-08-23T06:55:14.339Z,30.32
2017-08-23T06:56:14.344Z,30.13
2017-08-23T06:57:14.349Z,30.38
2017-08-23T06:58:14.356Z,30.15
2017-08-23T06:59:14.359Z,30.21
2017-08-23T07:00:14.368Z,30.54
2017-08-23T07:01:14.376Z,30.73
2017-08-23T07:02:14.381Z,28.88
2017-08-23T07:03:14.388Z,29.52
2017-08-23T07:04:14.394Z,28.77
2017-08-23T07:05:14.398Z,29.23
2017-08-23T07:06:14.407Z,28.94
2017-08-23T07:07:14.411Z,29.00
2017-08-23T07:08:14.412Z,29.12
2017-08-23T07:09:14.422Z,29.63
2017-08-23T07:10:14.426Z,29.14
2017-08-23T07:11:14.436Z,29.44
2017-08-23T07:12:14.439Z,29.55
2017-08-23T07:13:14.449Z,28.98
2017-08-23T07:14:14.454Z,28.72
2017-08-23T07:15:14.464Z,27.99
2017-08-23T07:16:14.474Z,28.03
2017-08-23T07:17:14.781Z,27.91
2017-08-23T07:18:14.490Z,28.98
2017-08-23T07:19:14.495Z,29.32
2017-08-23T07:20:14.501Z,28.97
2017-08-23T07:21:14.507Z,29.89
2017-08-23T07:22:14.512Z,30.46
2017-08-23T07:23:14.524Z,29.81
2017-08-23T07:24:14.534Z,29.71
2017-08-23T07:25:14.540Z,29.89
2017-08-23T07:26:14.551Z,30.53
2017-08-23T07:27:14.557Z,31.34
2017-08-23T07:28:14.563Z,31.41
2017-08-23T07:29:14.571Z,31.35
2017-08-23T07:30:14.582Z,31.40
2017-08-23T07:31:14.588Z,30.32
2017-08-23T07:32:14.592Z,30.51
2017-08-23T07:33:14.603Z,29.81
2017-08-23T07:34:14.607Z,30.28
2017-08-23T07:35:14.618Z,30.81
2017-08-23T07:36:14.628Z,32.13
2017-08-23T07:37:14.634Z,32.41
2017-08-23T07:38:14.644Z,32.72
2017-08-23T07:39:14.650Z,32.96
2017-08-23T07:40:14.663Z,33.11
2017-08-23T07:41:14.675Z,33.50
2017-08-23T07:42:14.681Z,33.44
2017-08-23T07:43:14.692Z,33.79
2017-08-23T07:44:14.700Z,34.50
2017-08-23T07:45:14.711Z,34.98
2017-08-23T07:46:14.727Z,35.49
2017-08-23T07:47:14.733Z,35.20
2017-08-23T07:48:14.737Z,34.03
2017-08-23T07:49:14.744Z,34.00
2017-08-23T07:50:14.757Z,33.82
2017-08-23T07:51:14.766Z,33.37
2017-08-23T07:52:14.779Z,33.62
2017-08-23T07:53:14.792Z,32.47
2017-08-23T07:54:14.798Z,31.65
2017-08-23T07:55:14.812Z,31.18
2017-08-23T07:56:14.825Z,32.35
2017-08-23T07:57:14.835Z,33.07
2017-08-23T07:58:14.849Z,32.49
2017-08-23T07:59:14.857Z,33.29
2017-08-23T08:00:14.869Z,32.54
2017-08-23T08:01:14.879Z,32.77
2017-08-23T08:02:14.893Z,32.05
2017-08-23T08:03:15.253Z,32.31
2017-08-23T08:04:14.907Z,33.45
2017-08-23T08:05:14.922Z,33.92
2017-08-23T08:06:14.932Z,33.74
2017-08-23T08:07:14.949Z,32.09
2017-08-23T08:08:14.955Z,31.09
2017-08-23T08:09:14.965Z,31.00
2017-08-23T08:10:14.978Z,31.04
2017-08-23T08:11:14.987Z,30.72
2017-08-23T08:12:15.002Z,31.71
2017-08-23T08:13:15.015Z,31.90
2017-08-23T08:14:15.024Z,31.57
2017-08-23T08:15:15.038Z,31.40
2017-08-23T08:16:15.045Z,31.54
2017-08-23T08:17:15.057Z,31.98
2017-08-23T08:18:15.066Z,32.31
2017-08-23T08:19:15.081Z,32.72
2017-08-23T08:20:15.086Z,33.79
2017-08-23T08:21:15.095Z,32.34
2017-08-23T08:22:15.110Z,32.03
2017-08-23T08:23:15.119Z,31.30
2017-08-23T08:24:15.132Z,32.34
2017-08-23T08:25:15.146Z,31.82
2017-08-23T08:26:15.155Z,32.80
2017-08-23T08:27:15.168Z,32.96
2017-08-23T08:28:15.180Z,33.49
2017-08-23T08:29:15.185Z,33.87
2017-08-23T08:30:15.198Z,33.41
2017-08-23T08:31:15.207Z,34.42
2017-08-23T08:32:15.223Z,34.86
2017-08-23T08:33:15.233Z,35.99
2017-08-23T08:34:15.245Z,35.49
2017-08-23T08:35:15.255Z,35.80
2017-08-23T08:36:15.271Z,34.95
2017-08-23T08:37:15.285Z,35.55
2017-08-23T08:38:15.296Z,35.12
2017-08-23T08:39:15.310Z,35.55
2017-08-23T08:40:15.322Z,33.99
2017-08-23T08:41:15.335Z,34.87
2017-08-23T08:42:15.350Z,35.69
2017-08-23T08:43:15.368Z,35.74
2017-08-23T08:44:15.369Z,35.91
2017-08-23T08:45:15.385Z,36.00
2017-08-23T08:46:15.395Z,35.17
2017-08-23T08:47:15.412Z,34.93
2017-08-23T08:48:15.428Z,34.46
2017-08-23T08:49:15.438Z,34.99
2017-08-23T08:50:15.449Z,34.00
2017-08-23T08:51:15.466Z,34.34
2017-08-23T08:52:15.484Z,34.34
2017-08-23T08:53:15.495Z,35.21
2017-08-23T08:54:15.511Z,36.21
2017-08-23T08:55:15.523Z,35.56
2017-08-23T08:56:15.535Z,36.75
2017-08-23T08:57:15.552Z,37.62
2017-08-23T08:58:15.565Z,38.50
2017-08-23T08:59:15.583Z,38.07
2017-08-23T09:00:15.590Z,37.45
2017-08-23T09:01:15.603Z,38.07
2017-08-23T09:02:15.620Z,37.97
2017-08-23T09:03:15.634Z,36.57
2017-08-23T09:04:15.649Z,37.40
2017-08-23T09:05:15.664Z,37.39
2017-08-23T09:06:15.680Z,37.25
2017-08-23T09:07:15.703Z,37.27
2017-08-23T09:08:15.713Z,36.64
2017-08-23T09:09:15.732Z,36.50
2017-08-23T09:10:15.746Z,36.53
2017-08-23T09:11:15.764Z,36.57
2017-08-23T09:12:15.780Z,37.33
2017-08-23T09:13:16.145Z,37.59
2017-08-23T09:14:15.811Z,38.72
2017-08-23T09:15:15.826Z,39.39
2017-08-23T09:16:15.838Z,37.62
2017-08-23T09:17:15.856Z,36.67
2017-08-23T09:18:15.870Z,35.55
2017-08-23T09:19:15.890Z,34.21
2017-08-23T09:20:15.902Z,35.31
2017-08-23T09:21:15.921Z,35.93
2017-08-23T09:22:15.935Z,36.03
2017-08-23T09:23:15.952Z,35.59
2017-08-23T09:24:15.971Z,35.64
2017-08-23T09:25:15.986Z,35.56
2017-08-23T09:26:16.004Z,35.21
2017-08-23T09:27:16.019Z,35.64
2017-08-23T09:28:16.034Z,36.18
2017-08-23T09:29:16.047Z,37.50
2017-08-23T09:30:16.065Z,38.04
2017-08-23T09:31:16.079Z,38.59
2017-08-23T09:32:16.098Z,38.82
2017-08-23T09:33:16.117Z,38.67
2017-08-23T09:34:16.132Z,38.50
2017-08-23T09:35:16.150Z,36.77
2017-08-23T09:36:16.164Z,35.17
2017-08-23T09:37:16.184Z,35.54
2017-08-23T09:38:16.199Z,35.59
2017-08-23T09:39:16.217Z,35.91
2017-08-23T09:40:16.228Z,35.99
2017-08-23T09:41:16.243Z,36.71
2017-08-23T09:42:16.262Z,37.30
2017-08-23T09:43:16.277Z,35.49
2017-08-23T09:44:16.293Z,35.54
2017-08-23T09:45:16.312Z,35.98
2017-08-23T09:46:16.327Z,36.02
2017-08-23T09:47:16.343Z,34.86
2017-08-23T09:48:16.365Z,35.47
2017-08-23T09:49:16.379Z,34.98
2017-08-23T09:50:16.397Z,34.72
2017-08-23T09:51:16.412Z,35.25
2017-08-23T09:52:16.430Z,34.76
2017-08-23T09:53:16.442Z,33.86
2017-08-23T09:54:16.462Z,33.75
2017-08-23T09:55:16.475Z,34.01
2017-08-23T09:56:16.485Z,34.06
2017-08-23T09:57:16.512Z,34.61
2017-08-23T09:58:16.518Z,34.83
2017-08-23T09:59:16.538Z,33.84
2017-08-23T10:00:16.549Z,32.50
2017-08-23T10:01:16.564Z,32.88
2017-08-23T10:02:16.583Z,33.65
2017-08-23T10:03:16.594Z,32.51
2017-08-23T10:04:16.614Z,32.61
2017-08-23T10:05:16.631Z,34.11
2017-08-23T10:06:16.646Z,34.26
2017-08-23T10:07:16.663Z,34.50
2017-08-23T10:08:16.675Z,35.37
2017-08-23T10:09:16.693Z,34.03
2017-08-23T10:10:16.709Z,33.79
2017-08-23T10:11:16.724Z,33.65
2017-08-23T10:12:16.741Z,32.69
2017-08-23T10:13:16.748Z,33.72
2017-08-23T10:14:16.766Z,34.30
2017-08-23T10:15:16.798Z,34.30
2017-08-23T10:16:16.794Z,34.27
2017-08-23T10:17:16.812Z,34.80
2017-08-23T10:18:16.828Z,34.56
2017-08-23T10:19:16.843Z,34.78
2017-08-23T10:20:16.865Z,34.72
2017-08-23T10:21:16.875Z,35.00
2017-08-23T10:22:16.894Z,34.56
2017-08-23T10:23:16.907Z,33.82
2017-08-23T10:24:16.924Z,33.75
2017-08-23T10:25:16.938Z,34.06
2017-08-23T10:26:16.954Z,33.82
2017-08-23T10:27:16.970Z,34.98
2017-08-23T10:28:16.980Z,34.91
2017-08-23T10:29:16.996Z,33.74
2017-08-23T10:30:17.010Z,34.45
2017-08-23T10:31:17.029Z,34.26
2017-08-23T10:32:17.047Z,34.95
2017-08-23T10:33:17.061Z,35.84
2017-08-23T10:34:17.078Z,36.05
2017-08-23T10:35:17.093Z,35.12
2017-08-23T10:36:17.106Z,34.01
2017-08-23T10:37:17.121Z,34.36
2017-08-23T10:38:17.135Z,35.12
2017-08-23T10:39:17.153Z,35.03
2017-08-23T10:40:17.167Z,34.56
2017-08-23T10:41:17.183Z,35.80
2017-08-23T10:42:17.198Z,35.98
2017-08-23T10:43:17.216Z,36.35
2017-08-23T10:44:17.234Z,34.90
2017-08-23T10:45:17.248Z,34.24
2017-08-23T10:46:17.276Z,34.37
2017-08-23T10:47:17.282Z,33.86
2017-08-23T10:48:17.293Z,33.70
2017-08-23T10:49:17.312Z,32.78
2017-08-23T10:50:17.325Z,32.54
2017-08-23T10:51:17.342Z,33.00
2017-08-23T10:52:17.352Z,32.93
2017-08-23T10:53:17.368Z,32.63
2017-08-23T10:54:17.382Z,33.02
2017-08-23T10:55:17.394Z,33.24
2017-08-23T10:56:17.409Z,33.56
2017-08-23T10:57:17.424Z,33.74
2017-08-23T10:58:17.437Z,33.92
2017-08-23T10:59:17.450Z,33.33
2017-08-23T11:00:17.466Z,33.55
2017-08-23T11:01:17.482Z,34.33
2017-08-23T11:02:17.494Z,35.42
2017-08-23T11:03:17.509Z,34.65
2017-08-23T11:04:17.522Z,35.21
2017-08-23T11:05:17.535Z,33.74
2017-08-23T11:06:17.554Z,32.59
2017-08-23T11:07:17.561Z,31.60
2017-08-23T11:08:17.570Z,32.47
2017-08-23T11:09:17.585Z,32.99
2017-08-23T11:10:17.596Z,33.24
2017-08-23T11:11:17.612Z,33.41
2017-08-23T11:12:17.622Z,33.11
2017-08-23T11:13:17.637Z,33.66
2017-08-23T11:14:17.658Z,33.93
2017-08-23T11:15:17.666Z,33.74
2017-08-23T11:16:17.681Z,32.93
2017-08-23T11:17:17.693Z,32.50
2017-08-23T11:18:17.709Z,32.31
2017-08-23T11:19:17.721Z,32.71
2017-08-23T11:20:17.733Z,33.55
2017-08-23T11:21:17.747Z,33.17
2017-08-23T11:22:17.759Z,32.50
2017-08-23T11:23:17.772Z,33.28
2017-08-23T11:24:17.782Z,32.73
2017-08-23T11:25:17.793Z,31.91
2017-08-23T11:26:17.807Z,31.72
2017-08-23T11:27:17.819Z,31.91
2017-08-23T11:28:17.842Z,31.99
2017-08-23T11:29:17.842Z,31.91
2017-08-23T11:30:17.856Z,30.93
2017-08-23T11:31:17.875Z,30.64
2017-08-23T11:32:17.880Z,30.22
2017-08-23T11:33:17.892Z,29.64
2017-08-23T11:34:17.900Z,29.71
2017-08-23T11:35:17.918Z,29.45
2017-08-23T11:36:17.920Z,29.49
2017-08-23T11:37:17.926Z,29.52
2017-08-23T11:38:17.939Z,29.10
2017-08-23T11:39:17.946Z,29.14
2017-08-23T11:40:17.957Z,29.17
2017-08-23T11:41:17.966Z,29.10
2017-08-23T11:42:17.973Z,29.11
2017-08-23T11:43:17.982Z,29.21
2017-08-23T11:44:17.989Z,29.45
2017-08-23T11:45:17.997Z,29.76
2017-08-23T11:46:18.002Z,30.11
2017-08-23T11:47:18.011Z,30.22
2017-08-23T11:48:18.012Z,30.23
2017-08-23T11:49:18.036Z,29.66
2017-08-23T11:50:18.029Z,29.52
2017-08-23T11:51:18.035Z,29.62
2017-08-23T11:52:18.035Z,29.60
2017-08-23T11:53:18.043Z,29.66
2017-08-23T11:54:18.045Z,29.64
2017-08-23T11:55:18.054Z,29.89
2017-08-23T11:56:18.063Z,29.23
2017-08-23T11:57:18.067Z,29.42
2017-08-23T11:58:18.074Z,29.25
2017-08-23T11:59:18.081Z,29.11
2017-08-23T12:00:18.085Z,29.20
2017-08-23T12:01:18.087Z,29.00
2017-08-23T12:02:18.131Z,29.15
2017-08-23T12:03:18.098Z,29.27
2017-08-23T12:04:18.097Z,28.97
2017-08-23T12:05:18.105Z,28.80
2017-08-23T12:06:18.106Z,28.91
2017-08-23T12:07:18.112Z,28.92
2017-08-23T12:08:18.121Z,29.18
2017-08-23T12:09:18.119Z,29.48
2017-08-23T12:10:18.127Z,29.66
2017-08-23T12:11:18.129Z,29.76
2017-08-23T12:12:18.137Z,29.71
2017-08-23T12:13:18.143Z,29.52
2017-08-23T12:14:18.146Z,29.15
2017-08-23T12:15:18.153Z,28.73
2017-08-23T12:16:18.153Z,28.89
2017-08-23T12:17:18.160Z,28.73
2017-08-23T12:18:18.162Z,28.52
2017-08-23T12:19:18.167Z,28.43
2017-08-23T12:20:18.167Z,28.73
2017-08-23T12:21:18.174Z,28.45
2017-08-23T12:22:18.173Z,28.20
2017-08-23T12:23:18.176Z,28.46
2017-08-23T12:24:18.179Z,28.58
2017-08-23T12:25:18.185Z,28.55
2017-08-23T12:26:18.188Z,28.76
2017-08-23T12:27:18.192Z,28.65
2017-08-23T12:28:18.199Z,28.65
2017-08-23T12:29:18.201Z,28.72
2017-08-23T12:30:18.207Z,28.46
2017-08-23T12:31:18.207Z,28.25
2017-08-23T12:32:18.212Z,28.42
2017-08-23T12:33:18.217Z,28.48
2017-08-23T12:34:18.221Z,28.42
2017-08-23T12:35:18.220Z,28.33
2017-08-23T12:36:18.218Z,28.39
2017-08-23T12:37:18.223Z,28.70
2017-08-23T12:38:18.225Z,28.74
2017-08-23T12:39:18.257Z,28.98
2017-08-23T12:40:18.236Z,29.14
2017-08-23T12:41:18.238Z,29.08
2017-08-23T12:42:18.241Z,29.27
2017-08-23T12:43:18.243Z,29.25
2017-08-23T12:44:18.241Z,29.05
2017-08-23T12:45:18.246Z,28.82
2017-08-23T12:46:18.245Z,28.62
2017-08-23T12:47:18.251Z,28.62
2017-08-23T12:48:18.251Z,28.77
2017-08-23T12:49:18.258Z,28.82
2017-08-23T12:50:18.257Z,28.73
2017-08-23T12:51:18.263Z,28.74
2017-08-23T12:52:18.272Z,28.89